Time;durP1;ratioP1;P1;durP2;ratioP2;P2;SDS_P1;SDS_P2;PMS_P1;PMS_P2;Temp;Humidity;BMP_temperature;BMP_pressure;BME280_temperature;BME280_humidity;BME280_pressure;Samples;Min_cycle;Max_cycle;Signal;HPM_P1;HPM_P2
2023/08/31 00:00:44;;;;;;;2.83;1.38;;;15.50;99.90;;;;;;4152557;28;20355;-70
2023/08/31 00:02:45;;;;;;;1.70;1.33;;;15.50;99.90;;;;;;4153737;28;20084;-71
2023/08/31 00:04:46;;;;;;;4.10;1.60;;;15.50;99.90;;;;;;4154659;28;20034;-71
2023/08/31 00:06:47;;;;;;;2.05;1.38;;;15.50;99.90;;;;;;4160183;28;20068;-71
2023/08/31 00:08:47;;;;;;;2.42;1.50;;;15.50;99.90;;;;;;4154522;28;20149;-71
2023/08/31 00:10:58;;;;;;;2.80;1.67;;;15.50;99.90;;;;;;4152003;28;20088;-71
2023/08/31 00:12:59;;;;;;;2.47;1.60;;;15.50;99.90;;;;;;4160973;28;20432;-71
2023/08/31 00:15:00;;;;;;;2.67;1.50;;;15.40;99.90;;;;;;4162088;28;20040;-71
2023/08/31 00:17:00;;;;;;;4.10;1.70;;;15.40;99.90;;;;;;4161047;28;20355;-71
2023/08/31 00:19:01;;;;;;;3.42;1.70;;;15.40;99.90;;;;;;4174786;28;20505;-71
2023/08/31 00:21:02;;;;;;;2.53;1.50;;;15.40;99.90;;;;;;4161071;28;20033;-71
2023/08/31 00:23:03;;;;;;;3.50;1.88;;;15.30;99.90;;;;;;4161909;28;20033;-71
2023/08/31 00:25:08;;;;;;;2.08;1.50;;;15.30;99.90;;;;;;4151433;28;20440;-72
2023/08/31 00:27:10;;;;;;;4.40;2.00;;;15.30;99.90;;;;;;4158772;28;20113;-70
2023/08/31 00:29:11;;;;;;;2.60;1.75;;;15.20;99.90;;;;;;4152854;28;20072;-70
2023/08/31 00:31:12;;;;;;;3.17;1.85;;;15.20;99.90;;;;;;4154491;28;20115;-70
2023/08/31 00:33:12;;;;;;;3.22;1.98;;;15.20;99.90;;;;;;4161020;28;20037;-71
2023/08/31 00:35:13;;;;;;;4.88;1.42;;;15.20;99.90;;;;;;4160858;28;20105;-71
2023/08/31 00:37:13;;;;;;;2.83;1.88;;;15.20;99.90;;;;;;4159925;28;20187;-71
2023/08/31 00:39:15;;;;;;;4.05;1.67;;;15.10;99.90;;;;;;4161177;28;20045;-71
2023/08/31 00:41:15;;;;;;;5.22;1.63;;;15.10;99.90;;;;;;4152424;28;20038;-71
2023/08/31 00:43:17;;;;;;;4.78;1.88;;;15.10;99.90;;;;;;4160873;28;20033;-71
2023/08/31 00:45:19;;;;;;;3.00;2.27;;;15.10;99.90;;;;;;4160430;28;20073;-71
2023/08/31 00:47:19;;;;;;;3.75;2.20;;;15.00;99.90;;;;;;4154082;28;20759;-71
2023/08/31 00:49:20;;;;;;;4.43;1.90;;;15.00;99.90;;;;;;4154874;28;20034;-73
2023/08/31 00:51:21;;;;;;;3.78;2.00;;;15.00;99.90;;;;;;4154586;28;20048;-71
2023/08/31 00:53:23;;;;;;;3.83;1.85;;;15.00;99.90;;;;;;4158295;28;20481;-72
2023/08/31 00:55:24;;;;;;;3.10;1.92;;;15.10;99.90;;;;;;4159141;28;20037;-71
2023/08/31 00:57:26;;;;;;;4.07;1.90;;;15.00;99.90;;;;;;4155645;28;20026;-71
2023/08/31 00:59:27;;;;;;;5.82;2.20;;;15.00;99.90;;;;;;4161243;28;20029;-71
2023/08/31 01:01:43;;;;;;;4.07;2.00;;;15.00;99.90;;;;;;4161054;28;20044;-65
2023/08/31 01:04:02;;;;;;;3.47;1.80;;;15.00;99.90;;;;;;4142403;28;20022;-63
2023/08/31 01:06:20;;;;;;;4.03;2.22;;;14.90;99.90;;;;;;4174053;28;20072;-65
2023/08/31 01:08:40;;;;;;;3.80;1.80;;;14.90;99.90;;;;;;4159927;28;20029;-65
2023/08/31 01:11:07;;;;;;;3.08;1.90;;;14.90;99.90;;;;;;4154226;28;20493;-65
2023/08/31 01:13:13;;;;;;;7.90;2.50;;;14.90;99.90;;;;;;4157695;28;20089;-66
2023/08/31 01:15:16;;;;;;;3.25;1.92;;;14.90;99.90;;;;;;4159042;28;20171;-65
2023/08/31 01:17:19;;;;;;;3.58;2.15;;;14.80;99.90;;;;;;4158351;28;20071;-65
2023/08/31 01:19:43;;;;;;;3.13;1.92;;;14.80;99.90;;;;;;4160952;28;20029;-65
2023/08/31 01:21:47;;;;;;;3.63;1.98;;;14.70;99.90;;;;;;4152070;28;20436;-65
2023/08/31 01:23:58;;;;;;;2.70;1.80;;;14.70;99.90;;;;;;4154161;28;20018;-65
2023/08/31 01:25:59;;;;;;;3.65;1.70;;;14.70;99.90;;;;;;4160377;28;20465;-65
2023/08/31 01:28:00;;;;;;;4.70;2.33;;;14.70;99.90;;;;;;4160915;28;20497;-65
2023/08/31 01:30:01;;;;;;;3.10;1.90;;;14.60;99.90;;;;;;4153975;28;20038;-64
2023/08/31 01:32:05;;;;;;;3.03;2.00;;;14.60;99.90;;;;;;4158476;28;20040;-65
2023/08/31 01:34:06;;;;;;;2.22;1.58;;;14.50;99.90;;;;;;4160563;28;20025;-65
2023/08/31 01:36:28;;;;;;;3.60;1.83;;;14.50;99.90;;;;;;4160164;28;20041;-65
2023/08/31 01:38:32;;;;;;;2.87;1.93;;;14.50;99.90;;;;;;4154343;28;20382;-65
2023/08/31 01:40:44;;;;;;;3.42;1.75;;;14.50;99.90;;;;;;4160253;28;20441;-65
2023/08/31 01:42:46;;;;;;;3.13;1.80;;;14.40;99.90;;;;;;4158941;28;20026;-65
2023/08/31 01:44:48;;;;;;;2.35;1.77;;;14.40;99.90;;;;;;4150829;28;20073;-65
2023/08/31 01:46:53;;;;;;;2.90;1.92;;;14.30;99.90;;;;;;4155068;28;20121;-65
2023/08/31 01:48:54;;;;;;;2.83;1.80;;;14.40;99.90;;;;;;4184867;28;20062;-65
2023/08/31 01:50:54;;;;;;;2.28;1.50;;;14.30;99.90;;;;;;4159992;28;20038;-65
2023/08/31 01:52:55;;;;;;;3.67;1.90;;;14.30;99.90;;;;;;4152282;28;20060;-65
2023/08/31 01:54:56;;;;;;;3.45;1.60;;;14.30;99.90;;;;;;4152329;28;20121;-65
2023/08/31 01:56:57;;;;;;;5.30;2.05;;;14.30;99.90;;;;;;4154121;28;20041;-65
2023/08/31 01:58:57;;;;;;;2.05;1.73;;;14.30;99.90;;;;;;4185680;28;20061;-64
2023/08/31 02:00:59;;;;;;;3.55;2.17;;;14.30;99.90;;;;;;4149894;28;20037;-65
2023/08/31 02:02:59;;;;;;;1.90;1.70;;;14.30;99.90;;;;;;4172966;28;20030;-65
2023/08/31 02:05:01;;;;;;;2.25;1.80;;;14.30;99.90;;;;;;4163214;28;20525;-65
2023/08/31 02:07:02;;;;;;;5.43;1.93;;;14.30;99.90;;;;;;4163542;28;20021;-64
2023/08/31 02:09:03;;;;;;;2.28;1.80;;;14.30;99.90;;;;;;4195792;28;20694;-65
2023/08/31 02:11:04;;;;;;;2.17;1.80;;;14.30;99.90;;;;;;4147307;28;20022;-65
2023/08/31 02:13:04;;;;;;;2.17;1.50;;;14.30;99.90;;;;;;4186316;28;20473;-65
2023/08/31 02:15:06;;;;;;;1.80;1.60;;;14.30;99.90;;;;;;4163586;28;20358;-65
2023/08/31 02:17:06;;;;;;;2.40;1.63;;;14.30;99.90;;;;;;4155349;28;20030;-65
2023/08/31 02:19:07;;;;;;;3.17;1.80;;;14.30;99.90;;;;;;4164719;28;20507;-65
2023/08/31 02:21:08;;;;;;;2.90;2.00;;;14.30;99.90;;;;;;4160243;28;20117;-68
2023/08/31 02:23:09;;;;;;;3.53;2.10;;;14.30;99.90;;;;;;4162126;28;20493;-70
2023/08/31 02:25:10;;;;;;;3.92;1.77;;;14.30;99.90;;;;;;4162474;28;20060;-72
2023/08/31 02:27:10;;;;;;;1.90;1.70;;;14.30;99.90;;;;;;4162808;28;20041;-71
2023/08/31 02:29:11;;;;;;;3.78;1.98;;;14.30;99.90;;;;;;4162776;28;20041;-71
2023/08/31 02:31:14;;;;;;;4.05;2.13;;;14.30;99.90;;;;;;4156977;28;20033;-71
2023/08/31 02:33:14;;;;;;;3.90;2.20;;;14.30;99.90;;;;;;4159573;28;20595;-72
2023/08/31 02:35:15;;;;;;;2.90;1.73;;;14.30;99.90;;;;;;4157967;28;20030;-72
2023/08/31 02:37:16;;;;;;;3.67;1.90;;;14.30;99.90;;;;;;4156163;28;20430;-72
2023/08/31 02:39:16;;;;;;;1.88;1.63;;;14.30;99.90;;;;;;4159235;28;20041;-72
2023/08/31 02:41:17;;;;;;;1.85;1.40;;;14.30;99.90;;;;;;4158730;28;20036;-72
2023/08/31 02:43:18;;;;;;;2.17;1.65;;;14.30;99.90;;;;;;4162262;28;20026;-71
2023/08/31 02:45:18;;;;;;;2.55;1.70;;;14.30;99.90;;;;;;4160874;28;20030;-72
2023/08/31 02:47:19;;;;;;;3.05;1.70;;;14.30;99.90;;;;;;4148770;28;20112;-72
2023/08/31 02:49:20;;;;;;;2.10;1.80;;;14.30;99.90;;;;;;4160923;28;20045;-71
2023/08/31 02:51:20;;;;;;;2.85;1.80;;;14.30;99.90;;;;;;4154484;28;20482;-72
2023/08/31 02:53:21;;;;;;;4.03;2.42;;;14.20;99.90;;;;;;4161397;28;20079;-72
2023/08/31 02:55:21;;;;;;;5.78;2.22;;;14.20;99.90;;;;;;4150379;28;20398;-72
2023/08/31 02:57:23;;;;;;;2.35;1.60;;;14.10;99.90;;;;;;4177721;28;20055;-71
2023/08/31 02:59:23;;;;;;;2.28;1.85;;;14.10;99.90;;;;;;4153278;28;20382;-72
2023/08/31 03:01:24;;;;;;;3.63;2.00;;;14.10;99.90;;;;;;4160607;28;20715;-72
2023/08/31 03:03:25;;;;;;;1.90;1.60;;;14.10;99.90;;;;;;4147456;28;20045;-72
2023/08/31 03:05:25;;;;;;;3.25;1.95;;;14.10;99.90;;;;;;4155715;28;20060;-72
2023/08/31 03:07:26;;;;;;;2.80;2.13;;;14.10;99.90;;;;;;4161016;28;20037;-72
2023/08/31 03:09:27;;;;;;;2.40;1.90;;;14.10;99.90;;;;;;4188250;28;20115;-72
2023/08/31 03:11:27;;;;;;;2.45;1.75;;;14.00;99.90;;;;;;4154666;28;20026;-71
2023/08/31 03:13:28;;;;;;;4.43;2.17;;;14.10;99.90;;;;;;4150675;28;20088;-72
2023/08/31 03:15:29;;;;;;;2.92;2.00;;;14.00;99.90;;;;;;4160395;28;20508;-72
2023/08/31 03:17:29;;;;;;;3.03;1.60;;;14.00;99.90;;;;;;4162608;28;20373;-72
2023/08/31 03:19:30;;;;;;;3.05;1.70;;;14.00;99.90;;;;;;4157615;28;20057;-72
2023/08/31 03:21:30;;;;;;;2.83;1.77;;;14.00;99.90;;;;;;4156252;28;20040;-72
2023/08/31 03:23:31;;;;;;;2.13;1.92;;;14.00;99.90;;;;;;4148979;28;20034;-71
2023/08/31 03:25:32;;;;;;;2.15;1.60;;;14.00;99.90;;;;;;4151008;28;20048;-72
2023/08/31 03:27:32;;;;;;;2.90;2.00;;;14.00;99.90;;;;;;4176919;28;20029;-72
2023/08/31 03:29:34;;;;;;;2.60;1.70;;;14.00;99.90;;;;;;4157705;28;20512;-72
2023/08/31 03:31:34;;;;;;;2.72;2.00;;;14.00;99.90;;;;;;4152105;28;20548;-71
2023/08/31 03:33:35;;;;;;;3.33;1.92;;;13.90;99.90;;;;;;4156820;28;20076;-71
2023/08/31 03:35:36;;;;;;;2.92;1.90;;;14.00;99.90;;;;;;4160528;28;20108;-71
2023/08/31 03:37:36;;;;;;;3.60;2.22;;;14.00;99.90;;;;;;4157294;28;20494;-72
2023/08/31 03:39:37;;;;;;;5.30;2.13;;;14.00;99.90;;;;;;4158617;28;20030;-71
2023/08/31 03:41:37;;;;;;;4.07;2.60;;;14.00;99.90;;;;;;4157130;28;20030;-71
2023/08/31 03:43:38;;;;;;;2.53;1.98;;;13.90;99.90;;;;;;4163580;28;20426;-71
2023/08/31 03:45:38;;;;;;;3.22;2.28;;;13.90;99.90;;;;;;4148672;28;20030;-69
2023/08/31 03:47:39;;;;;;;3.38;2.22;;;13.90;99.90;;;;;;4158851;28;20033;-70
2023/08/31 03:49:40;;;;;;;3.35;2.35;;;14.00;99.90;;;;;;4154126;28;20494;-70
2023/08/31 03:51:40;;;;;;;3.35;2.20;;;13.90;99.90;;;;;;4157045;28;20107;-70
2023/08/31 03:53:41;;;;;;;3.28;2.15;;;13.90;99.90;;;;;;4149610;28;20057;-70
2023/08/31 03:55:42;;;;;;;3.22;2.38;;;13.90;99.90;;;;;;4158643;28;20053;-71
2023/08/31 03:57:43;;;;;;;4.53;2.40;;;13.90;99.90;;;;;;4171181;28;20030;-71
2023/08/31 03:59:43;;;;;;;4.05;2.50;;;13.80;99.90;;;;;;4156542;28;20108;-71
2023/08/31 04:01:44;;;;;;;5.47;2.40;;;13.70;99.90;;;;;;4158388;28;20032;-71
2023/08/31 04:03:45;;;;;;;2.28;2.08;;;13.70;99.90;;;;;;4154185;28;20037;-71
2023/08/31 04:05:46;;;;;;;3.53;2.38;;;13.70;99.90;;;;;;4160919;28;20057;-71
2023/08/31 04:07:46;;;;;;;3.45;2.28;;;13.70;99.90;;;;;;4152474;28;20409;-71
2023/08/31 04:09:47;;;;;;;5.18;2.22;;;13.70;99.90;;;;;;4160213;28;20480;-71
2023/08/31 04:11:49;;;;;;;3.17;2.13;;;13.70;99.90;;;;;;4184569;28;20492;-71
2023/08/31 04:13:49;;;;;;;3.28;2.08;;;13.70;99.90;;;;;;4158268;28;20117;-71
2023/08/31 04:15:51;;;;;;;4.45;2.05;;;13.70;99.90;;;;;;4161504;28;20049;-71
2023/08/31 04:17:51;;;;;;;2.13;1.92;;;13.70;99.90;;;;;;4153667;28;20440;-71
2023/08/31 04:19:52;;;;;;;2.30;1.70;;;13.60;99.90;;;;;;4149895;28;20042;-71
2023/08/31 04:21:53;;;;;;;3.47;2.35;;;13.60;99.90;;;;;;4189746;28;20041;-71
2023/08/31 04:23:53;;;;;;;3.38;2.10;;;13.70;99.90;;;;;;4160035;28;20034;-71
2023/08/31 04:25:54;;;;;;;2.28;2.08;;;13.60;99.90;;;;;;4160534;28;20405;-71
2023/08/31 04:27:54;;;;;;;3.58;2.35;;;13.70;99.90;;;;;;4192869;28;20044;-71
2023/08/31 04:29:55;;;;;;;3.97;2.50;;;13.70;99.90;;;;;;4156636;28;20046;-71
2023/08/31 04:31:56;;;;;;;3.50;2.53;;;13.60;99.90;;;;;;4155730;28;20467;-71
2023/08/31 04:33:56;;;;;;;3.58;2.28;;;13.70;99.90;;;;;;4160405;28;20042;-71
2023/08/31 04:35:57;;;;;;;5.35;2.35;;;13.70;99.90;;;;;;4167258;28;20246;-71
2023/08/31 04:37:58;;;;;;;3.25;2.22;;;13.70;99.90;;;;;;4153279;28;20125;-71
2023/08/31 04:39:58;;;;;;;4.28;2.53;;;13.60;99.90;;;;;;4158931;28;20029;-71
2023/08/31 04:41:59;;;;;;;4.57;2.42;;;13.70;99.90;;;;;;4151622;28;20038;-72
2023/08/31 04:44:00;;;;;;;3.78;2.30;;;13.60;99.90;;;;;;4158222;28;20127;-71
2023/08/31 04:46:00;;;;;;;3.08;1.98;;;13.60;99.90;;;;;;4156085;28;20126;-71
2023/08/31 04:48:01;;;;;;;3.83;2.40;;;13.60;99.90;;;;;;4190943;28;20025;-71
2023/08/31 04:50:03;;;;;;;3.45;2.10;;;13.60;99.90;;;;;;4158982;28;20042;-72
2023/08/31 04:52:04;;;;;;;5.87;2.57;;;13.70;99.90;;;;;;4152175;28;20491;-71
2023/08/31 04:54:05;;;;;;;4.75;2.38;;;13.70;99.90;;;;;;4153928;28;20025;-71
2023/08/31 04:56:08;;;;;;;3.85;2.80;;;13.60;99.90;;;;;;4162057;28;20029;-71
2023/08/31 04:58:08;;;;;;;5.07;2.40;;;13.60;99.90;;;;;;4193319;28;20036;-71
2023/08/31 05:00:09;;;;;;;3.03;2.40;;;13.60;99.90;;;;;;4160887;28;20033;-68
2023/08/31 05:02:10;;;;;;;3.72;2.35;;;13.60;99.90;;;;;;4151534;28;20034;-68
2023/08/31 05:04:10;;;;;;;6.55;3.10;;;13.60;99.90;;;;;;4139269;28;20030;-69
2023/08/31 05:06:11;;;;;;;6.30;3.05;;;13.60;99.90;;;;;;4156456;28;20049;-68
2023/08/31 05:08:11;;;;;;;4.75;2.65;;;13.60;99.90;;;;;;4156006;28;20033;-68
2023/08/31 05:10:12;;;;;;;3.80;2.60;;;13.60;99.90;;;;;;4167890;28;20034;-68
2023/08/31 05:12:13;;;;;;;3.80;2.67;;;13.50;99.90;;;;;;4161348;28;20040;-68
2023/08/31 05:14:13;;;;;;;2.83;2.28;;;13.50;99.90;;;;;;4159089;28;20033;-67
2023/08/31 05:16:14;;;;;;;5.45;2.90;;;13.50;99.90;;;;;;4159447;28;20551;-68
2023/08/31 05:18:15;;;;;;;4.78;2.55;;;13.50;99.90;;;;;;4160225;28;20029;-67
2023/08/31 05:20:15;;;;;;;5.03;3.13;;;13.50;99.90;;;;;;4157729;28;20037;-67
2023/08/31 05:22:16;;;;;;;3.83;2.80;;;13.50;99.90;;;;;;4192267;28;20463;-68
2023/08/31 05:24:17;;;;;;;7.22;3.03;;;13.50;99.90;;;;;;4157730;28;20029;-68
2023/08/31 05:26:17;;;;;;;4.60;3.05;;;13.50;99.90;;;;;;4155495;28;20412;-69
2023/08/31 05:28:18;;;;;;;4.53;2.70;;;13.40;99.90;;;;;;4171343;28;20037;-68
2023/08/31 05:30:19;;;;;;;4.35;3.17;;;13.40;99.90;;;;;;4151347;28;20041;-68
2023/08/31 05:32:19;;;;;;;3.17;2.67;;;13.40;99.90;;;;;;4165246;28;20036;-69
2023/08/31 05:34:24;;;;;;;4.38;2.80;;;13.40;99.90;;;;;;4161740;28;20392;-68
2023/08/31 05:36:25;;;;;;;4.32;2.63;;;13.40;99.90;;;;;;4174416;28;20036;-68
2023/08/31 05:38:25;;;;;;;3.42;2.17;;;13.40;99.90;;;;;;4174326;28;20052;-67
2023/08/31 05:40:26;;;;;;;4.97;2.58;;;13.40;99.90;;;;;;4164470;28;20044;-67
2023/08/31 05:42:27;;;;;;;5.70;2.53;;;13.40;99.90;;;;;;4162858;28;20362;-67
2023/08/31 05:44:27;;;;;;;5.97;3.17;;;13.40;99.90;;;;;;4166360;28;20046;-67
2023/08/31 05:46:28;;;;;;;4.22;2.92;;;13.40;99.90;;;;;;4157393;28;20087;-68
2023/08/31 05:48:29;;;;;;;5.10;3.20;;;13.50;99.90;;;;;;4159084;28;20039;-68
2023/08/31 05:50:30;;;;;;;4.47;2.67;;;13.40;99.90;;;;;;4162242;28;20046;-68
2023/08/31 05:52:31;;;;;;;12.48;3.00;;;13.40;99.90;;;;;;4164214;28;20029;-65
2023/08/31 05:54:32;;;;;;;5.82;2.53;;;13.50;99.90;;;;;;4161936;28;20192;-66
2023/08/31 05:56:33;;;;;;;7.57;2.83;;;13.50;99.90;;;;;;4162681;28;20497;-65
2023/08/31 05:58:35;;;;;;;4.82;3.10;;;13.50;99.90;;;;;;4152140;28;20041;-66
2023/08/31 06:00:36;;;;;;;6.00;2.67;;;13.50;99.90;;;;;;4158542;28;20117;-65
2023/08/31 06:02:36;;;;;;;4.90;2.72;;;13.60;99.90;;;;;;4163753;28;20062;-65
2023/08/31 06:04:37;;;;;;;3.65;2.50;;;13.60;99.90;;;;;;4164166;28;20037;-66
2023/08/31 06:06:38;;;;;;;4.75;2.78;;;13.60;99.90;;;;;;4180725;28;20476;-65
2023/08/31 06:08:38;;;;;;;4.93;2.58;;;13.60;99.90;;;;;;4162122;28;20121;-66
2023/08/31 06:10:39;;;;;;;4.45;2.30;;;13.60;99.90;;;;;;4169502;28;20031;-66
2023/08/31 06:12:39;;;;;;;2.70;2.50;;;13.70;99.90;;;;;;4156232;28;20088;-67
2023/08/31 06:14:40;;;;;;;5.63;3.08;;;13.70;99.90;;;;;;4148042;28;20481;-67
2023/08/31 06:16:41;;;;;;;4.75;2.70;;;13.80;99.90;;;;;;4160722;28;20124;-66
2023/08/31 06:18:42;;;;;;;4.40;2.85;;;13.80;99.90;;;;;;4161263;28;20029;-66
2023/08/31 06:20:42;;;;;;;6.95;3.15;;;13.80;99.90;;;;;;4160443;28;20037;-67
2023/08/31 06:22:43;;;;;;;6.35;2.78;;;13.90;99.90;;;;;;4163085;28;20044;-67
2023/08/31 06:24:45;;;;;;;6.07;2.67;;;14.00;99.90;;;;;;4160075;28;20025;-66
2023/08/31 06:26:46;;;;;;;3.53;2.40;;;14.00;99.90;;;;;;4159185;28;20037;-67
2023/08/31 06:28:46;;;;;;;5.47;2.85;;;14.00;99.90;;;;;;4162082;28;20117;-67
2023/08/31 06:30:47;;;;;;;7.25;3.28;;;14.10;99.90;;;;;;4161540;28;20033;-67
2023/08/31 06:32:49;;;;;;;3.97;2.35;;;14.20;99.90;;;;;;4162880;28;20449;-67
2023/08/31 06:34:50;;;;;;;5.43;2.85;;;14.30;99.90;;;;;;4161056;28;20037;-67
2023/08/31 06:36:51;;;;;;;2.30;2.00;;;14.50;99.90;;;;;;4161121;28;20057;-66
2023/08/31 06:38:51;;;;;;;4.47;2.60;;;14.70;99.90;;;;;;4162485;28;20116;-66
2023/08/31 06:40:58;;;;;;;3.65;2.30;;;15.00;99.90;;;;;;4161889;28;20385;-67
2023/08/31 06:42:59;;;;;;;3.15;2.05;;;15.20;99.90;;;;;;4159526;28;20452;-67
2023/08/31 06:45:00;;;;;;;2.50;1.80;;;15.30;99.90;;;;;;4161219;28;20573;-67
2023/08/31 06:47:00;;;;;;;2.65;1.80;;;15.60;99.90;;;;;;4113683;28;20033;-67
2023/08/31 06:49:01;;;;;;;2.63;1.83;;;15.80;99.90;;;;;;4131193;28;20040;-66
2023/08/31 06:51:03;;;;;;;3.10;2.10;;;16.00;99.90;;;;;;4133362;28;20059;-66
2023/08/31 06:53:04;;;;;;;3.15;2.08;;;16.10;99.90;;;;;;4156489;28;20044;-66
2023/08/31 06:55:06;;;;;;;5.45;2.13;;;16.30;99.90;;;;;;4103156;28;20025;-68
2023/08/31 06:57:06;;;;;;;3.57;2.17;;;16.60;99.90;;;;;;4061976;28;20489;-67
2023/08/31 06:59:07;;;;;;;4.55;1.88;;;16.80;99.90;;;;;;4158670;28;20039;-67
2023/08/31 07:01:13;;;;;;;3.72;2.05;;;16.90;99.90;;;;;;4162498;28;20122;-69
2023/08/31 07:03:14;;;;;;;3.22;1.98;;;17.10;99.90;;;;;;4164219;28;20080;-67
2023/08/31 07:05:15;;;;;;;4.97;2.50;;;17.20;99.90;;;;;;4163077;28;20128;-67
2023/08/31 07:07:15;;;;;;;5.75;2.25;;;17.10;99.90;;;;;;4163767;28;20033;-66
2023/08/31 07:09:16;;;;;;;3.28;1.92;;;17.10;99.90;;;;;;4163996;28;20517;-67
2023/08/31 07:11:17;;;;;;;3.83;2.20;;;17.10;99.90;;;;;;4163874;28;20083;-67
2023/08/31 07:13:18;;;;;;;6.60;1.98;;;17.00;99.90;;;;;;4164009;28;20033;-66
2023/08/31 07:15:19;;;;;;;3.13;1.83;;;17.00;99.90;;;;;;4092307;28;20021;-67
2023/08/31 07:17:20;;;;;;;3.58;1.80;;;17.10;99.90;;;;;;4089416;28;20457;-67
2023/08/31 07:19:20;;;;;;;5.40;1.83;;;17.20;99.90;;;;;;4061825;28;20179;-66
2023/08/31 07:21:22;;;;;;;2.75;1.90;;;17.40;99.90;;;;;;4161163;28;20033;-66
2023/08/31 07:23:23;;;;;;;3.80;1.85;;;17.50;99.90;;;;;;4163489;28;20037;-67
2023/08/31 07:25:23;;;;;;;4.22;1.70;;;17.70;99.90;;;;;;4163223;28;20033;-67
2023/08/31 07:27:24;;;;;;;2.97;1.70;;;17.90;99.90;;;;;;4163717;28;20421;-67
2023/08/31 07:29:25;;;;;;;3.13;1.65;;;18.10;99.90;;;;;;4163610;28;20116;-66
2023/08/31 07:31:25;;;;;;;2.47;1.48;;;18.30;99.90;;;;;;4163315;28;20026;-66
2023/08/31 07:33:26;;;;;;;2.83;1.67;;;18.50;99.90;;;;;;4163691;28;20100;-66
2023/08/31 07:35:26;;;;;;;2.83;1.60;;;18.70;99.90;;;;;;4162531;28;20039;-67
2023/08/31 07:37:27;;;;;;;2.25;1.40;;;18.80;99.90;;;;;;4163891;28;20129;-66
2023/08/31 07:39:28;;;;;;;3.10;1.73;;;18.90;99.90;;;;;;4162063;28;20379;-66
2023/08/31 07:41:28;;;;;;;2.40;1.35;;;19.00;99.90;;;;;;4161748;28;20033;-67
2023/08/31 07:43:29;;;;;;;1.17;0.90;;;19.10;99.90;;;;;;4163586;28;20029;-67
2023/08/31 07:45:30;;;;;;;2.60;1.58;;;19.20;99.90;;;;;;4162711;28;20211;-66
2023/08/31 07:47:31;;;;;;;3.83;1.80;;;19.20;99.90;;;;;;4163806;28;20034;-66
2023/08/31 07:49:31;;;;;;;2.65;1.40;;;19.30;99.90;;;;;;4121542;28;20043;-67
2023/08/31 07:51:32;;;;;;;4.32;1.67;;;19.30;99.90;;;;;;4137418;28;20389;-66
2023/08/31 07:53:33;;;;;;;2.67;1.75;;;19.30;99.90;;;;;;4163709;28;20490;-66
2023/08/31 07:55:35;;;;;;;2.88;1.30;;;19.30;99.90;;;;;;4162594;28;20060;-66
2023/08/31 07:57:35;;;;;;;2.70;1.55;;;19.30;99.90;;;;;;4161722;28;20025;-68
2023/08/31 07:59:39;;;;;;;2.75;1.48;;;19.40;99.90;;;;;;4162771;28;20038;-67
2023/08/31 08:01:41;;;;;;;4.20;1.75;;;19.40;99.90;;;;;;4161777;28;20083;-66
2023/08/31 08:03:41;;;;;;;1.90;1.20;;;19.40;99.90;;;;;;4163244;28;20091;-67
2023/08/31 08:05:42;;;;;;;3.05;1.40;;;19.40;99.90;;;;;;4162652;28;20046;-67
2023/08/31 08:07:43;;;;;;;5.60;1.98;;;19.50;99.90;;;;;;4163118;28;20127;-66
2023/08/31 08:09:43;;;;;;;2.45;1.30;;;19.40;99.90;;;;;;4178042;28;20051;-66
2023/08/31 08:11:44;;;;;;;2.75;1.40;;;19.40;99.90;;;;;;4161797;28;20112;-69
2023/08/31 08:13:45;;;;;;;1.73;1.33;;;19.40;99.90;;;;;;4163163;28;20033;-69
2023/08/31 08:15:46;;;;;;;3.67;2.00;;;19.50;99.90;;;;;;4162547;28;20040;-69
2023/08/31 08:17:48;;;;;;;2.70;1.50;;;19.60;99.90;;;;;;4162473;28;20087;-69
2023/08/31 08:19:48;;;;;;;2.07;1.50;;;19.60;99.90;;;;;;4162197;28;20087;-69
2023/08/31 08:21:50;;;;;;;2.55;1.70;;;19.60;99.90;;;;;;4162682;28;20751;-66
2023/08/31 08:23:52;;;;;;;2.67;1.48;;;19.60;99.90;;;;;;4160682;28;20068;-66
2023/08/31 08:25:52;;;;;;;1.27;0.88;;;19.70;99.90;;;;;;4162377;28;20554;-66
2023/08/31 08:27:53;;;;;;;3.72;1.83;;;19.80;99.90;;;;;;4163031;28;20034;-66
2023/08/31 08:29:53;;;;;;;4.28;1.65;;;19.80;99.90;;;;;;4162977;28;20041;-65
2023/08/31 08:31:54;;;;;;;3.55;1.40;;;19.90;99.90;;;;;;4161500;28;20037;-62
2023/08/31 08:33:54;;;;;;;3.65;1.58;;;20.00;99.90;;;;;;4162684;28;20029;-62
2023/08/31 08:35:58;;;;;;;2.35;1.38;;;20.00;99.90;;;;;;4162426;28;20512;-62
2023/08/31 08:37:59;;;;;;;3.80;1.35;;;20.00;99.90;;;;;;4162698;28;20037;-62
2023/08/31 08:40:01;;;;;;;4.40;1.70;;;20.00;99.90;;;;;;4162878;28;20029;-62
2023/08/31 08:42:05;;;;;;;2.65;1.48;;;20.10;99.90;;;;;;4162418;28;20037;-62
2023/08/31 08:44:07;;;;;;;4.40;1.92;;;20.10;99.90;;;;;;4162645;28;20458;-62
2023/08/31 08:46:09;;;;;;;3.17;1.67;;;20.20;99.90;;;;;;4144101;28;20579;-63
2023/08/31 08:48:09;;;;;;;2.50;1.45;;;20.30;99.90;;;;;;4162896;28;20033;-62
2023/08/31 08:50:12;;;;;;;2.22;1.40;;;20.30;99.90;;;;;;4162310;28;20037;-63
2023/08/31 08:52:14;;;;;;;5.05;1.83;;;20.30;99.90;;;;;;4162180;28;20045;-62
2023/08/31 08:54:15;;;;;;;6.38;2.03;;;20.40;99.90;;;;;;4162764;28;20378;-62
2023/08/31 08:56:17;;;;;;;2.47;1.40;;;20.50;99.90;;;;;;4162328;28;20037;-63
2023/08/31 08:58:17;;;;;;;4.95;2.00;;;20.60;99.90;;;;;;4162757;28;20607;-62
2023/08/31 09:00:18;;;;;;;4.00;1.48;;;20.70;99.90;;;;;;4161887;28;20123;-62
2023/08/31 09:02:18;;;;;;;3.55;1.70;;;20.80;99.90;;;;;;4161811;28;20481;-63
2023/08/31 09:04:19;;;;;;;2.60;1.50;;;20.70;99.90;;;;;;4161819;28;20117;-62
2023/08/31 09:06:20;;;;;;;3.67;1.80;;;20.60;99.90;;;;;;4161848;28;20061;-62
2023/08/31 09:08:28;;;;;;;1.40;1.20;;;20.70;99.90;;;;;;4162219;28;20087;-62
2023/08/31 09:10:57;;;;;;;3.53;1.52;;;20.80;99.90;;;;;;4160448;28;20060;-62
2023/08/31 09:13:00;;;;;;;3.15;1.48;;;20.70;99.90;;;;;;4157884;28;20040;-62
2023/08/31 09:15:01;;;;;;;;;;;20.70;99.90;;;;;;4163120;28;20028;-62
2023/08/31 09:17:03;;;;;;;4.53;1.70;;;20.80;99.90;;;;;;4102388;28;20312;-62
2023/08/31 09:19:21;;;;;;;3.53;1.60;;;20.80;99.90;;;;;;4078022;28;20040;-62
2023/08/31 09:21:24;;;;;;;4.05;1.45;;;20.80;99.90;;;;;;4110883;28;20284;-62
2023/08/31 09:23:25;;;;;;;3.40;1.77;;;20.80;99.90;;;;;;4157274;28;20501;-62
2023/08/31 09:25:25;;;;;;;4.85;1.63;;;20.80;99.90;;;;;;4161696;28;20044;-62
2023/08/31 09:27:26;;;;;;;5.50;1.80;;;20.90;99.90;;;;;;4160863;28;20049;-62
2023/08/31 09:29:27;;;;;;;4.20;1.70;;;20.80;99.90;;;;;;4160865;28;20041;-62
2023/08/31 09:31:30;;;;;;;3.22;1.80;;;20.90;99.90;;;;;;4161433;28;20116;-62
2023/08/31 09:33:31;;;;;;;3.08;1.33;;;20.90;99.90;;;;;;4175053;28;20406;-62
2023/08/31 09:35:32;;;;;;;4.22;1.35;;;20.90;99.90;;;;;;4160372;28;20033;-63
2023/08/31 09:37:33;;;;;;;4.63;1.70;;;21.00;99.90;;;;;;4165418;28;20429;-62
2023/08/31 09:39:38;;;;;;;7.40;1.90;;;21.00;99.90;;;;;;4161579;28;20031;-62
2023/08/31 09:41:55;;;;;;;3.45;1.58;;;21.00;99.90;;;;;;4159627;28;20022;-71
2023/08/31 09:43:56;;;;;;;3.95;1.50;;;21.00;99.90;;;;;;4149193;28;21096;-71
2023/08/31 09:45:56;;;;;;;4.18;1.45;;;21.00;99.90;;;;;;4159530;28;20033;-71
2023/08/31 09:48:01;;;;;;;3.10;1.52;;;21.00;99.90;;;;;;4161183;28;20029;-73
2023/08/31 09:50:03;;;;;;;3.15;1.60;;;21.00;99.90;;;;;;4159984;28;20072;-72
2023/08/31 09:52:05;;;;;;;3.25;1.10;;;21.00;99.90;;;;;;4160668;28;20044;-72
2023/08/31 09:54:09;;;;;;;3.28;1.23;;;21.00;99.90;;;;;;4161092;28;20021;-71
2023/08/31 09:56:13;;;;;;;3.67;1.40;;;21.10;99.90;;;;;;4160815;28;20030;-71
2023/08/31 09:58:20;;;;;;;2.85;1.35;;;21.10;99.90;;;;;;4159553;28;20029;-71
2023/08/31 10:00:20;;;;;;;5.18;1.50;;;21.00;99.90;;;;;;4147955;28;20516;-71
2023/08/31 10:02:21;;;;;;;4.68;1.65;;;20.90;99.90;;;;;;4161886;28;20029;-71
2023/08/31 10:04:23;;;;;;;2.88;1.50;;;20.80;99.90;;;;;;4189788;28;20029;-72
2023/08/31 10:06:24;;;;;;;3.70;1.40;;;20.80;99.90;;;;;;4170655;28;20084;-71
2023/08/31 10:08:28;;;;;;;3.85;1.48;;;20.80;99.90;;;;;;4159985;28;20043;-72
2023/08/31 10:10:30;;;;;;;2.72;1.30;;;20.90;99.90;;;;;;4158400;28;20044;-71
2023/08/31 10:12:31;;;;;;;6.73;2.17;;;20.90;99.90;;;;;;4160022;28;20113;-72
2023/08/31 10:14:32;;;;;;;4.32;1.50;;;21.00;99.90;;;;;;4156733;28;20651;-72
2023/08/31 10:16:33;;;;;;;3.72;1.58;;;21.10;99.90;;;;;;4159031;28;20099;-72
2023/08/31 10:18:37;;;;;;;3.78;1.65;;;21.20;99.90;;;;;;4158576;28;20033;-71
2023/08/31 10:20:45;;;;;;;4.13;1.95;;;21.30;99.90;;;;;;4157234;28;20038;-71
2023/08/31 10:22:46;;;;;;;4.65;1.90;;;21.30;99.90;;;;;;4157669;28;20060;-71
2023/08/31 10:25:01;;;;;;;4.57;1.50;;;21.40;99.90;;;;;;4159418;28;20037;-72
2023/08/31 10:27:19;;;;;;;3.90;1.45;;;21.40;99.90;;;;;;4129247;28;21622;-73
2023/08/31 10:29:29;;;;;;;3.65;1.73;;;21.50;99.90;;;;;;4155820;28;20026;-72
2023/08/31 10:31:33;;;;;;;5.30;2.20;;;21.40;99.90;;;;;;4134345;28;20374;-72
2023/08/31 10:34:06;;;;;;;2.58;1.55;;;21.30;99.90;;;;;;4162427;28;20049;-72
2023/08/31 10:36:12;;;;;;;;;;;21.30;99.90;;;;;;4160030;28;20429;-71